createdAt,value
2019-03-01T00:01:16.069Z,57.17
2019-03-01T00:03:48.238Z,55.40
2019-03-01T00:06:42.126Z,56.77
2019-03-01T00:09:47.796Z,55.83
2019-03-01T00:12:36.947Z,58.20
2019-03-01T00:15:47.213Z,56.47
2019-03-01T00:18:32.747Z,58.50
2019-03-01T00:21:24.453Z,57.67
2019-03-01T00:24:16.287Z,57.47
2019-03-01T00:27:02.419Z,57.70
2019-03-01T00:29:42.342Z,57.43
2019-03-01T00:32:25.296Z,57.93
2019-03-01T00:35:32.589Z,58.50
2019-03-01T00:38:36.238Z,57.50
2019-03-01T00:41:21.720Z,59.87
2019-03-01T00:44:41.868Z,59.07
2019-03-01T00:47:18.234Z,60.43
2019-03-01T00:49:47.915Z,59.77
2019-03-01T00:52:17.775Z,60.47
2019-03-01T00:54:47.449Z,59.47
2019-03-01T00:57:17.159Z,61.90
2019-03-01T00:59:46.845Z,60.67
2019-03-01T01:02:16.512Z,58.77
2019-03-01T01:04:46.282Z,54.07
2019-03-01T01:07:15.951Z,54.47
2019-03-01T01:09:45.714Z,53.67
2019-03-01T01:12:15.394Z,54.00
2019-03-01T01:14:45.060Z,52.23
2019-03-01T01:17:15.199Z,54.83
2019-03-01T01:19:44.875Z,52.27
2019-03-01T01:22:14.616Z,53.53
2019-03-01T01:24:44.287Z,52.70
2019-03-01T01:27:13.979Z,53.33
2019-03-01T01:29:45.239Z,52.87
2019-03-01T01:32:14.992Z,54.00
2019-03-01T01:34:45.625Z,54.70
2019-03-01T01:37:15.304Z,55.03
2019-03-01T01:39:45.341Z,53.03
2019-03-01T01:42:15.174Z,53.80
2019-03-01T01:44:44.844Z,53.73
2019-03-01T01:47:14.547Z,53.63
2019-03-01T01:49:47.214Z,54.23
2019-03-01T01:52:16.898Z,54.60
2019-03-01T01:54:46.584Z,52.97
2019-03-01T01:57:17.906Z,54.80
2019-03-01T01:59:47.574Z,55.60
2019-03-01T02:02:17.340Z,54.93
2019-03-01T02:04:47.095Z,57.47
2019-03-01T02:07:17.415Z,57.97
2019-03-01T02:09:47.069Z,56.73
2019-03-01T02:12:16.769Z,54.60
2019-03-01T02:14:46.422Z,59.40
2019-03-01T02:17:16.079Z,59.37
2019-03-01T02:19:45.779Z,59.07
2019-03-01T02:22:15.560Z,58.53
2019-03-01T02:24:45.205Z,59.23
2019-03-01T02:27:27.379Z,57.00
2019-03-01T02:29:58.698Z,55.27
2019-03-01T02:32:41.615Z,55.93
2019-03-01T02:35:17.477Z,56.13
2019-03-01T02:37:52.681Z,55.33
2019-03-01T02:40:22.562Z,55.30
2019-03-01T02:42:52.538Z,54.00
2019-03-01T02:45:23.396Z,55.67
2019-03-01T02:47:53.067Z,53.87
2019-03-01T02:50:22.859Z,54.30
2019-03-01T02:52:52.632Z,53.50
2019-03-01T02:55:23.127Z,53.80
2019-03-01T02:57:52.755Z,52.93
2019-03-01T03:00:31.584Z,52.63
2019-03-01T03:03:01.251Z,52.83
2019-03-01T03:05:30.917Z,51.93
2019-03-01T03:08:03.512Z,50.53
2019-03-01T03:10:33.205Z,50.83
2019-03-01T03:13:10.366Z,51.70
2019-03-01T03:15:41.670Z,52.17
2019-03-01T03:18:12.884Z,50.60
2019-03-01T03:20:43.938Z,49.97
2019-03-01T03:23:13.595Z,49.53
2019-03-01T03:25:43.331Z,49.20
2019-03-01T03:28:13.020Z,49.53
2019-03-01T03:30:42.786Z,48.80
2019-03-01T03:33:12.519Z,48.20
2019-03-01T03:35:42.215Z,48.47
2019-03-01T03:38:11.827Z,48.93
2019-03-01T03:40:41.494Z,48.90
2019-03-01T03:43:11.260Z,48.03
2019-03-01T03:45:42.775Z,48.20
2019-03-01T03:48:12.443Z,48.93
2019-03-01T03:50:42.156Z,48.63
2019-03-01T03:53:12.395Z,48.77
2019-03-01T03:55:42.052Z,47.93
2019-03-01T03:58:11.811Z,48.30
2019-03-01T04:00:43.199Z,47.93
2019-03-01T04:03:12.886Z,48.13
2019-03-01T04:05:44.363Z,48.17
2019-03-01T04:08:14.398Z,47.67
2019-03-01T04:10:44.068Z,48.10
2019-03-01T04:13:16.525Z,48.53
2019-03-01T04:15:45.252Z,47.20
2019-03-01T04:18:15.031Z,47.77
2019-03-01T04:20:45.003Z,48.27
2019-03-01T04:23:14.681Z,47.37
2019-03-01T04:25:47.191Z,47.10
2019-03-01T04:28:16.888Z,47.70
2019-03-01T04:30:46.547Z,47.07
2019-03-01T04:33:16.295Z,47.90
2019-03-01T04:35:48.015Z,47.00
2019-03-01T04:38:17.698Z,49.43
2019-03-01T04:40:47.372Z,48.07
2019-03-01T04:43:17.154Z,48.77
2019-03-01T04:45:46.822Z,47.97
2019-03-01T04:48:16.504Z,47.33
2019-03-01T04:50:46.195Z,48.37
2019-03-01T04:53:15.929Z,48.80
2019-03-01T04:55:45.783Z,47.97
2019-03-01T04:58:15.479Z,48.30
2019-03-01T05:00:45.222Z,46.33
2019-03-01T05:03:14.914Z,48.07
2019-03-01T05:05:44.580Z,47.27
2019-03-01T05:08:14.247Z,48.37
2019-03-01T05:10:44.345Z,48.07
2019-03-01T05:13:14.004Z,47.40
2019-03-01T05:15:43.668Z,47.47
2019-03-01T05:18:13.368Z,46.60
2019-03-01T05:20:43.019Z,49.80
2019-03-01T05:23:13.839Z,49.13
2019-03-01T05:25:43.529Z,49.70
2019-03-01T05:28:13.680Z,48.17
2019-03-01T05:30:45.979Z,49.07
2019-03-01T05:33:15.688Z,48.10
2019-03-01T05:35:45.358Z,49.77
2019-03-01T05:38:21.487Z,47.47
2019-03-01T05:40:46.439Z,48.93
2019-03-01T05:43:16.097Z,47.47
2019-03-01T05:45:45.766Z,47.73
2019-03-01T05:48:15.450Z,49.73
2019-03-01T05:50:45.119Z,49.83
2019-03-01T05:53:14.778Z,50.10
2019-03-01T05:55:44.481Z,50.20
2019-03-01T05:58:35.453Z,49.87
2019-03-01T06:01:15.251Z,49.90
2019-03-01T06:04:04.755Z,50.73
2019-03-01T06:06:56.480Z,51.63
2019-03-01T06:09:36.483Z,50.27
2019-03-01T06:12:25.657Z,51.63
2019-03-01T06:15:19.248Z,51.83
2019-03-01T06:18:05.097Z,52.20
2019-03-01T06:20:41.623Z,51.27
2019-03-01T06:23:21.633Z,52.33
2019-03-01T06:26:12.213Z,50.10
2019-03-01T06:29:03.914Z,49.77
2019-03-01T06:31:43.727Z,51.37
2019-03-01T06:34:53.207Z,51.60
2019-03-01T06:38:03.895Z,51.70
2019-03-01T06:41:20.498Z,51.17
2019-03-01T06:44:14.175Z,51.53
2019-03-01T06:47:13.918Z,51.63
2019-03-01T06:49:56.970Z,50.57
2019-03-01T06:52:26.751Z,51.50
2019-03-01T06:54:56.480Z,52.27
2019-03-01T06:57:26.171Z,50.67
2019-03-01T06:59:55.862Z,51.23
2019-03-01T07:02:39.006Z,49.90
2019-03-01T07:05:10.521Z,51.10
2019-03-01T07:07:40.175Z,52.47
2019-03-01T07:10:12.735Z,52.93
2019-03-01T07:12:42.442Z,52.07
2019-03-01T07:15:12.316Z,52.63
2019-03-01T07:17:41.980Z,51.20
2019-03-01T07:20:12.718Z,52.23
2019-03-01T07:22:42.542Z,53.20
2019-03-01T07:25:12.199Z,52.60
2019-03-01T07:27:41.889Z,54.03
2019-03-01T07:30:12.654Z,55.47
2019-03-01T07:32:42.334Z,53.33
2019-03-01T07:35:12.021Z,53.70
2019-03-01T07:37:41.701Z,54.53
2019-03-01T07:40:13.268Z,51.80
2019-03-01T07:42:46.466Z,53.27
2019-03-01T07:45:16.839Z,53.97
2019-03-01T07:47:46.671Z,54.40
2019-03-01T07:50:17.805Z,53.17
2019-03-01T07:52:47.486Z,54.33
2019-03-01T07:55:17.945Z,52.77
2019-03-01T07:57:49.822Z,54.87
2019-03-01T08:00:19.235Z,53.47
2019-03-01T08:02:48.953Z,55.50
2019-03-01T08:05:18.637Z,54.37
2019-03-01T08:07:55.578Z,55.67
2019-03-01T08:10:23.983Z,55.23
2019-03-01T08:12:53.689Z,53.27
2019-03-01T08:15:23.528Z,55.67
2019-03-01T08:17:54.157Z,56.87
2019-03-01T08:20:23.841Z,56.03
2019-03-01T08:22:56.771Z,55.60
2019-03-01T08:25:28.590Z,55.87
2019-03-01T08:27:58.488Z,56.03
2019-03-01T08:30:28.155Z,55.23
2019-03-01T08:32:57.831Z,56.17
2019-03-01T08:35:28.321Z,57.20
2019-03-01T08:37:58.926Z,57.17
2019-03-01T08:40:28.728Z,56.50
2019-03-01T08:42:58.470Z,56.77
2019-03-01T08:45:32.977Z,55.83
2019-03-01T08:48:01.272Z,56.27
2019-03-01T08:50:30.996Z,55.97
2019-03-01T08:53:00.656Z,55.93
2019-03-01T08:55:35.639Z,55.27
2019-03-01T08:58:07.467Z,56.70
2019-03-01T09:00:44.808Z,55.40
2019-03-01T09:03:33.316Z,55.63
2019-03-01T09:06:04.303Z,55.90
2019-03-01T09:08:33.980Z,56.33
2019-03-01T09:11:05.516Z,56.27
2019-03-01T09:13:36.212Z,56.40
2019-03-01T09:16:06.425Z,54.77
2019-03-01T09:18:36.215Z,54.67
2019-03-01T09:21:06.327Z,54.73
2019-03-01T09:23:36.041Z,54.00
2019-03-01T09:26:06.123Z,53.03
2019-03-01T09:28:39.453Z,51.37
2019-03-01T09:31:08.448Z,51.97
2019-03-01T09:33:38.999Z,52.30
2019-03-01T09:36:18.006Z,51.50
2019-03-01T09:38:51.218Z,52.50
2019-03-01T09:41:20.898Z,51.30
2019-03-01T09:43:51.375Z,51.80
2019-03-01T09:46:24.046Z,49.80
2019-03-01T09:48:53.696Z,50.10
2019-03-01T09:51:23.368Z,50.60
2019-03-01T09:53:53.027Z,49.20
2019-03-01T09:56:24.375Z,50.33
2019-03-01T09:58:54.264Z,48.93
2019-03-01T10:01:23.938Z,49.30
2019-03-01T10:03:53.616Z,49.83
2019-03-01T10:06:23.313Z,48.40
2019-03-01T10:08:52.999Z,50.87
2019-03-01T10:11:22.668Z,48.50
2019-03-01T10:13:54.177Z,49.13
2019-03-01T10:16:23.959Z,49.10
2019-03-01T10:18:55.701Z,49.77
2019-03-01T10:21:27.916Z,48.73
2019-03-01T10:23:58.883Z,49.23
2019-03-01T10:26:28.565Z,49.33
2019-03-01T10:28:58.251Z,50.73
2019-03-01T10:31:27.938Z,50.17
2019-03-01T10:33:57.749Z,49.50
2019-03-01T10:36:27.416Z,49.87
2019-03-01T10:38:57.169Z,49.10
2019-03-01T10:41:26.868Z,50.73
2019-03-01T10:43:56.545Z,49.13
2019-03-01T10:46:27.236Z,47.33
2019-03-01T10:49:00.885Z,49.30
2019-03-01T10:51:30.614Z,48.40
2019-03-01T10:54:00.260Z,49.23
2019-03-01T10:56:32.971Z,48.17
2019-03-01T10:59:23.337Z,48.60
2019-03-01T11:01:55.072Z,48.63
2019-03-01T11:04:26.228Z,48.77
2019-03-01T11:06:58.913Z,48.37
2019-03-01T11:09:28.616Z,48.83
2019-03-01T11:11:59.229Z,49.10
2019-03-01T11:14:28.885Z,49.47
2019-03-01T11:16:58.587Z,49.47
2019-03-01T11:19:28.238Z,48.00
2019-03-01T11:21:57.901Z,49.60
2019-03-01T11:24:27.637Z,48.97
2019-03-01T11:26:57.331Z,56.53
2019-03-01T11:29:26.991Z,51.47
2019-03-01T11:31:56.697Z,51.40
2019-03-01T11:34:26.378Z,49.43
2019-03-01T11:36:56.327Z,48.90
2019-03-01T11:39:26.483Z,49.10
2019-03-01T11:41:56.145Z,50.10
2019-03-01T11:44:26.153Z,49.37
2019-03-01T11:46:57.140Z,50.13
2019-03-01T11:49:26.815Z,48.67
2019-03-01T11:51:57.960Z,49.57
2019-03-01T11:54:30.077Z,49.40
2019-03-01T11:56:59.756Z,49.20
2019-03-01T11:59:29.435Z,49.33
2019-03-01T12:02:00.330Z,49.83
2019-03-01T12:04:30.047Z,49.33
2019-03-01T12:06:59.777Z,49.57
2019-03-01T12:09:29.898Z,49.73
2019-03-01T12:11:59.565Z,49.30
2019-03-01T12:14:29.251Z,49.07
2019-03-01T12:16:58.942Z,49.10
2019-03-01T12:19:28.624Z,49.77
2019-03-01T12:21:58.316Z,49.67
2019-03-01T12:24:28.012Z,49.70
2019-03-01T12:26:58.514Z,48.60
2019-03-01T12:29:28.178Z,48.47
2019-03-01T12:31:58.045Z,48.57
2019-03-01T12:34:27.719Z,48.27
2019-03-01T12:36:57.453Z,48.97
2019-03-01T12:39:27.146Z,49.80
2019-03-01T12:41:56.832Z,48.53
2019-03-01T12:44:26.576Z,48.90
2019-03-01T12:46:56.372Z,48.57
2019-03-01T12:49:26.051Z,49.73
2019-03-01T12:51:57.350Z,49.33
2019-03-01T12:54:27.055Z,48.40
2019-03-01T12:57:02.559Z,48.87
2019-03-01T12:59:32.238Z,48.40
2019-03-01T13:02:01.925Z,48.90
2019-03-01T13:04:31.658Z,48.77
2019-03-01T13:07:01.326Z,48.77
2019-03-01T13:09:31.009Z,49.40
2019-03-01T13:12:01.278Z,49.20
2019-03-01T13:14:30.941Z,48.90
2019-03-01T13:17:01.710Z,49.40
2019-03-01T13:19:32.027Z,49.70
2019-03-01T13:22:03.164Z,48.10
2019-03-01T13:24:32.863Z,49.57
2019-03-01T13:27:02.534Z,49.50
2019-03-01T13:29:32.229Z,49.57
2019-03-01T13:32:01.901Z,49.27
2019-03-01T13:34:31.595Z,49.07
2019-03-01T13:37:01.284Z,49.00
2019-03-01T13:39:30.976Z,49.33
2019-03-01T13:42:00.663Z,50.80
2019-03-01T13:44:31.979Z,50.53
2019-03-01T13:47:01.683Z,49.40
2019-03-01T13:49:31.444Z,49.00
2019-03-01T13:52:01.088Z,49.67
2019-03-01T13:54:30.790Z,48.17
2019-03-01T13:57:00.467Z,48.50
2019-03-01T13:59:30.135Z,49.17
2019-03-01T14:01:59.817Z,48.73
2019-03-01T14:04:29.483Z,48.33
2019-03-01T14:06:59.138Z,48.23
2019-03-01T14:09:28.829Z,49.37
2019-03-01T14:11:59.354Z,49.47
2019-03-01T14:14:29.958Z,50.07
2019-03-01T14:17:01.280Z,48.60
2019-03-01T14:19:30.952Z,49.93
2019-03-01T14:22:00.629Z,48.33
2019-03-01T14:24:30.541Z,48.80
2019-03-01T14:27:00.458Z,48.00
2019-03-01T14:29:53.666Z,48.33
2019-03-01T14:32:21.861Z,47.33
2019-03-01T14:34:51.727Z,48.00
2019-03-01T14:37:21.425Z,47.73
2019-03-01T14:39:54.010Z,47.53
2019-03-01T14:42:23.682Z,47.33
2019-03-01T14:44:53.384Z,47.77
2019-03-01T14:47:42.376Z,48.63
2019-03-01T14:50:16.962Z,47.17
2019-03-01T14:52:46.849Z,47.57
2019-03-01T14:55:38.539Z,47.97
2019-03-01T14:58:30.386Z,47.73
2019-03-01T15:01:07.408Z,48.07
2019-03-01T15:03:40.617Z,48.80
2019-03-01T15:06:10.914Z,48.07
2019-03-01T15:08:44.273Z,47.17
2019-03-01T15:11:17.067Z,46.63
2019-03-01T15:13:50.799Z,48.30
2019-03-01T15:16:22.176Z,48.00
2019-03-01T15:18:51.836Z,47.93
2019-03-01T15:21:21.579Z,47.10
2019-03-01T15:23:56.194Z,47.70
2019-03-01T15:26:26.659Z,47.67
2019-03-01T15:28:58.771Z,47.80
2019-03-01T15:31:28.704Z,46.90
2019-03-01T15:34:00.085Z,48.10
2019-03-01T15:36:29.741Z,48.27
2019-03-01T15:38:59.434Z,47.07
2019-03-01T15:41:29.115Z,48.40
2019-03-01T15:43:58.822Z,46.03
2019-03-01T15:46:32.174Z,46.93
2019-03-01T15:49:05.128Z,47.50
2019-03-01T15:51:38.075Z,48.63
2019-03-01T15:54:06.073Z,47.50
2019-03-01T15:56:35.867Z,47.57
2019-03-01T15:59:09.677Z,46.83
2019-03-01T16:01:37.983Z,46.23
2019-03-01T16:04:26.972Z,46.20
2019-03-01T16:06:56.653Z,46.23
2019-03-01T16:09:26.455Z,45.77
2019-03-01T16:11:57.704Z,45.60
2019-03-01T16:14:27.365Z,46.53
2019-03-01T16:16:57.024Z,46.97
2019-03-01T16:19:26.733Z,46.27
2019-03-01T16:21:56.691Z,47.60
2019-03-01T16:24:26.379Z,47.10
2019-03-01T16:26:56.076Z,47.10
2019-03-01T16:29:25.734Z,47.00
2019-03-01T16:31:55.412Z,46.60
2019-03-01T16:34:27.531Z,47.23
2019-03-01T16:36:57.784Z,47.33
2019-03-01T16:39:27.462Z,46.23
2019-03-01T16:41:57.154Z,46.47
2019-03-01T16:44:26.828Z,45.97
2019-03-01T16:46:56.538Z,46.00
2019-03-01T16:49:27.241Z,46.30
2019-03-01T16:51:58.580Z,46.83
2019-03-01T16:54:28.635Z,46.77
2019-03-01T16:57:18.624Z,47.07
2019-03-01T16:59:48.776Z,45.33
2019-03-01T17:02:18.476Z,45.80
2019-03-01T17:04:48.180Z,46.67
2019-03-01T17:07:17.851Z,46.70
2019-03-01T17:09:51.328Z,46.37
2019-03-01T17:12:18.963Z,46.67
2019-03-01T17:14:48.636Z,47.30
2019-03-01T17:17:18.321Z,46.37
2019-03-01T17:19:48.014Z,46.07
2019-03-01T17:22:17.682Z,46.80
2019-03-01T17:24:51.254Z,46.43
2019-03-01T17:27:22.909Z,46.63
2019-03-01T17:29:52.573Z,46.17
2019-03-01T17:32:22.251Z,45.80
2019-03-01T17:34:53.133Z,46.70
2019-03-01T17:37:25.842Z,45.77
2019-03-01T17:39:56.511Z,46.10
2019-03-01T17:42:27.326Z,46.57
2019-03-01T17:44:57.005Z,46.93
2019-03-01T17:47:26.678Z,47.20
2019-03-01T17:49:56.362Z,47.03
2019-03-01T17:52:39.299Z,47.43
2019-03-01T17:55:15.672Z,48.30
2019-03-01T17:57:45.322Z,47.00
2019-03-01T18:00:33.687Z,46.60
2019-03-01T18:03:03.431Z,46.27
2019-03-01T18:05:33.093Z,46.83
2019-03-01T18:08:03.584Z,46.57
2019-03-01T18:10:34.313Z,46.47
2019-03-01T18:13:06.304Z,46.23
2019-03-01T18:15:37.996Z,46.43
2019-03-01T18:18:08.886Z,46.63
2019-03-01T18:20:39.143Z,45.57
2019-03-01T18:23:08.828Z,46.17
2019-03-01T18:25:38.610Z,45.97
2019-03-01T18:28:08.285Z,46.07
2019-03-01T18:30:38.097Z,45.13
2019-03-01T18:33:07.754Z,45.47
2019-03-01T18:35:37.486Z,46.17
2019-03-01T18:38:07.174Z,44.20
2019-03-01T18:40:37.215Z,45.20
2019-03-01T18:43:09.805Z,45.10
2019-03-01T18:45:38.526Z,44.67
2019-03-01T18:48:11.222Z,44.77
2019-03-01T18:50:41.396Z,45.63
2019-03-01T18:53:11.351Z,44.83
2019-03-01T18:55:40.846Z,44.77
2019-03-01T18:58:13.897Z,43.60
2019-03-01T19:00:48.668Z,43.83
2019-03-01T19:03:18.347Z,44.40
2019-03-01T19:05:48.027Z,44.40
2019-03-01T19:08:18.055Z,44.17
2019-03-01T19:10:54.182Z,43.57
2019-03-01T19:13:20.752Z,43.40
2019-03-01T19:15:54.425Z,43.33
2019-03-01T19:18:21.974Z,43.47
2019-03-01T19:20:55.901Z,42.33
2019-03-01T19:23:29.383Z,42.30
2019-03-01T19:26:01.719Z,42.27
2019-03-01T19:28:29.952Z,42.10
2019-03-01T19:30:59.765Z,41.70
2019-03-01T19:33:29.440Z,42.13
2019-03-01T19:36:00.605Z,42.53
2019-03-01T19:38:32.763Z,41.57
2019-03-01T19:41:02.828Z,41.83
2019-03-01T19:43:34.574Z,41.37
2019-03-01T19:46:04.771Z,41.10
2019-03-01T19:48:37.052Z,41.77
2019-03-01T19:51:08.746Z,40.93
2019-03-01T19:53:38.443Z,43.80
2019-03-01T19:56:08.152Z,42.37
2019-03-01T19:58:37.810Z,41.27
2019-03-01T20:01:07.497Z,41.77
2019-03-01T20:03:37.207Z,40.73
2019-03-01T20:06:07.848Z,41.77
2019-03-01T20:08:38.300Z,41.10
2019-03-01T20:11:07.999Z,41.87
2019-03-01T20:13:39.242Z,42.17
2019-03-01T20:16:09.000Z,41.00
2019-03-01T20:18:41.716Z,41.30
2019-03-01T20:21:10.575Z,41.80
2019-03-01T20:23:40.247Z,41.57
2019-03-01T20:26:09.958Z,41.30
2019-03-01T20:28:40.576Z,41.20
2019-03-01T20:31:10.223Z,41.83
2019-03-01T20:33:40.004Z,41.37
2019-03-01T20:36:09.818Z,41.57
2019-03-01T20:38:40.006Z,41.53
2019-03-01T20:41:10.593Z,42.50
2019-03-01T20:43:41.833Z,41.67
2019-03-01T20:46:11.766Z,41.33
2019-03-01T20:48:41.475Z,42.20
2019-03-01T20:51:11.146Z,42.43
2019-03-01T20:53:40.921Z,42.93
2019-03-01T20:56:13.791Z,41.90
2019-03-01T20:58:42.029Z,42.97
2019-03-01T21:01:11.717Z,42.70
2019-03-01T21:03:41.411Z,41.13
2019-03-01T21:06:11.122Z,42.00
2019-03-01T21:08:41.859Z,41.07
2019-03-01T21:11:12.553Z,41.60
2019-03-01T21:13:45.676Z,40.83
2019-03-01T21:16:13.707Z,41.53
2019-03-01T21:18:43.428Z,41.93
2019-03-01T21:21:13.108Z,42.13
2019-03-01T21:23:43.993Z,41.00
2019-03-01T21:26:15.630Z,40.60
2019-03-01T21:28:45.114Z,40.40
2019-03-01T21:31:14.836Z,41.80
2019-03-01T21:33:44.347Z,40.67
2019-03-01T21:36:14.152Z,40.57
2019-03-01T21:38:45.599Z,39.87
2019-03-01T21:41:16.778Z,42.03
2019-03-01T21:43:46.444Z,41.87
2019-03-01T21:46:16.143Z,41.07
2019-03-01T21:48:47.299Z,40.83
2019-03-01T21:51:18.553Z,41.17
2019-03-01T21:53:48.571Z,41.43
2019-03-01T21:56:18.273Z,40.97
2019-03-01T21:58:47.956Z,41.33
2019-03-01T22:01:17.626Z,40.83
2019-03-01T22:03:47.333Z,41.37
2019-03-01T22:06:17.016Z,40.77
2019-03-01T22:08:48.667Z,40.13
2019-03-01T22:11:18.146Z,40.87
2019-03-01T22:13:47.837Z,40.53
2019-03-01T22:16:17.517Z,41.23
2019-03-01T22:18:47.211Z,40.20
2019-03-01T22:21:22.579Z,40.60
2019-03-01T22:23:51.564Z,39.73
2019-03-01T22:26:21.020Z,40.20
2019-03-01T22:28:50.670Z,39.73
2019-03-01T22:31:20.618Z,40.07
2019-03-01T22:33:52.518Z,40.67
2019-03-01T22:36:27.519Z,39.57
2019-03-01T22:38:57.359Z,39.83
2019-03-01T22:41:27.210Z,39.27
2019-03-01T22:43:58.301Z,39.00
2019-03-01T22:46:30.058Z,40.13
2019-03-01T22:49:01.568Z,38.10
2019-03-01T22:51:34.041Z,38.50
2019-03-01T22:54:03.718Z,39.67
2019-03-01T22:56:34.846Z,39.73
2019-03-01T22:59:08.590Z,39.83
2019-03-01T23:01:40.810Z,39.57
2019-03-01T23:04:30.313Z,39.47
2019-03-01T23:07:00.030Z,38.17
2019-03-01T23:09:29.817Z,38.67
2019-03-01T23:11:59.526Z,38.70
2019-03-01T23:14:30.771Z,38.70
2019-03-01T23:17:14.177Z,38.80
2019-03-01T23:19:43.836Z,38.50
2019-03-01T23:22:13.540Z,38.67
2019-03-01T23:24:45.606Z,38.13
2019-03-01T23:27:15.273Z,38.20
2019-03-01T23:29:45.231Z,39.30
2019-03-01T23:32:16.736Z,38.53
2019-03-01T23:34:46.528Z,38.90
2019-03-01T23:37:16.806Z,39.50
2019-03-01T23:39:46.534Z,38.93
2019-03-01T23:42:17.392Z,38.60
2019-03-01T23:44:47.895Z,38.77
2019-03-01T23:47:17.601Z,38.83
2019-03-01T23:49:47.265Z,39.20
2019-03-01T23:52:19.645Z,38.47
2019-03-01T23:54:48.748Z,39.43
2019-03-01T23:57:18.244Z,39.30
2019-03-01T23:59:47.916Z,38.80
